ADDS METAR Data INFO
IDs: Format: Raw Decoded Include TAF

Data at: 1959 UTC 25 Feb 2018

KGDJ 251955Z AUTO 12005KT 10SM CLR 20/05 A3000 RMK AO2 T01950052
KGDJ 251940Z AUTO 14004KT 10SM CLR 20/06 A3001 RMK AO2 T01950057
KGDJ 251915Z AUTO 13008KT 10SM CLR 19/06 A3002 RMK AO2 T01880062
KGDJ 251855Z AUTO 12009KT 10SM CLR 18/06 A3003 RMK AO2 T01820058
KGDJ 251835Z AUTO 15008KT 10SM CLR 18/06 A3005 RMK AO2 T01830064
KGDJ 251815Z AUTO 13005KT 10SM CLR 18/07 A3005 RMK AO2 T01780068
KGDJ 251755Z AUTO 15007KT 10SM CLR 17/07 A3006 RMK AO2 T01680073 10168 20020
KGDJ 251735Z AUTO 12005KT 10SM CLR 16/07 A3007 RMK AO2 T01600073
KGDJ 251715Z AUTO 10006KT 10SM SCT120 15/08 A3007 RMK AO2 T01520080
KGDJ 251655Z AUTO 12006KT 10SM SCT120 14/09 A3009 RMK AO2 T01430086
KGDJ 251640Z AUTO 11006KT 10SM CLR 13/08 A3009 RMK AO2 T01310084
KGDJ 251615Z AUTO 11003KT 10SM CLR 13/09 A3010 RMK AO2 T01250086
KGDJ 251555Z AUTO 13005KT 10SM CLR 10/08 A3009 RMK AO2 T01040081
KGDJ 251535Z AUTO 13004KT 10SM CLR 09/08 A3008 RMK AO2 T00890080
KGDJ 251515Z AUTO 00000KT 7SM CLR 08/07 A3008 RMK AO2 T00800071
KGDJ 251455Z AUTO 00000KT 7SM CLR 07/06 A3009 RMK AO2 T00660058
KGDJ 251435Z AUTO 00000KT 10SM CLR 07/06 A3009 RMK AO2 T00660058
KGDJ 251415Z AUTO 00000KT 7SM CLR 06/05 A3008 RMK AO2 T00550048
KGDJ 251355Z AUTO 26003KT 7SM CLR 03/03 A3007 RMK AO2 T00320026
KGDJ 251335Z AUTO 25003KT 7SM CLR 03/02 A3007 RMK AO2 T00270021
KGDJ 251315Z AUTO 00000KT 10SM CLR 03/02 A3007 RMK AO2 T00300023
KGDJ 251255Z AUTO 00000KT 10SM CLR 03/02 A3006 RMK AO2 T00280021
KGDJ 251235Z AUTO 00000KT 7SM CLR 03/02 A3005 RMK AO2 T00260019
KGDJ 251215Z AUTO 00000KT 7SM CLR 03/02 A3006 RMK AO2 T00260020
KGDJ 251155Z AUTO 00000KT 7SM CLR 03/02 A3004 RMK AO2 70010 T00250018 10065 20012
KGDJ 251135Z AUTO 00000KT 7SM CLR 02/02 A3004 RMK AO2 T00230017
KGDJ 251115Z AUTO 00000KT 10SM CLR 02/01 A3004 RMK AO2 T00170011
KGDJ 251055Z AUTO 00000KT 10SM CLR 01/01 A3003 RMK AO2 T00120005
KGDJ 251035Z AUTO 00000KT 7SM CLR 02/01 A3003 RMK AO2 T00160009
KGDJ 251015Z AUTO 00000KT 10SM CLR 03/02 A3003 RMK AO2 T00250020
KGDJ 250955Z AUTO 00000KT 10SM CLR 03/02 A3002 RMK AO2 T00250019
KGDJ 250935Z AUTO 00000KT 10SM CLR 02/02 A3003 RMK AO2 T00230017
KGDJ 250915Z AUTO 00000KT 10SM CLR 03/02 A3003 RMK AO2 T00250018
KGDJ 250855Z AUTO 21003KT 7SM CLR 03/02 A3002 RMK AO2 T00290021
KGDJ 250835Z AUTO 19003KT 7SM CLR 03/02 A3003 RMK AO2 T00270020
KGDJ 250815Z AUTO 00000KT 10SM CLR 03/03 A3003 RMK AO2 T00340026
KGDJ 250755Z AUTO 00000KT 10SM CLR 04/03 A3003 RMK AO2 T00350027
KGDJ 250735Z AUTO 24003KT 10SM CLR 03/02 A3003 RMK AO2 T00300022
KGDJ 250715Z AUTO 00000KT 7SM CLR 03/02 A3003 RMK AO2 T00250016
KGDJ 250655Z AUTO 00000KT 7SM CLR 04/03 A3003 RMK AO2 T00400030
KGDJ 250635Z AUTO 00000KT 10SM CLR 05/04 A3004 RMK AO2 T00480037
KGDJ 250615Z AUTO 00000KT 10SM CLR 05/04 A3004 RMK AO2 T00500037
KGDJ 250555Z AUTO 00000KT 10SM CLR 06/05 A3003 RMK AO2 T00630051 10166 20057 401850057
KGDJ 250535Z AUTO 00000KT 10SM CLR 06/05 A3003 RMK AO2 T00590046
KGDJ 250515Z AUTO 00000KT 10SM CLR 06/05 A3003 RMK AO2 T00620046
KGDJ 250455Z AUTO 00000KT 10SM CLR 07/05 A3002 RMK AO2 T00690054
KGDJ 250435Z AUTO 00000KT 10SM CLR 07/06 A3002 RMK AO2 T00720056
KGDJ 250415Z AUTO 00000KT 10SM CLR 08/06 A3002 RMK AO2 T00800060
KGDJ 250355Z AUTO 00000KT 10SM CLR 08/06 A3001 RMK AO2 T00840064
KGDJ 250335Z AUTO 00000KT 10SM CLR 09/06 A3000 RMK AO2 T00860064
KGDJ 250315Z AUTO 26005KT 10SM CLR 08/06 A2999 RMK AO2 T00830062
KGDJ 250255Z AUTO 00000KT 10SM CLR 09/06 A2998 RMK AO2 T00900063
KGDJ 250235Z AUTO 18004KT 10SM CLR 10/07 A2997 RMK AO2 T01030073
KGDJ 250215Z AUTO 18004KT 10SM CLR 10/07 A2996 RMK AO2 T00990071
KGDJ 250155Z AUTO 23003KT 10SM CLR 11/07 A2996 RMK AO2 T01050067
KGDJ 250135Z AUTO 00000KT 10SM CLR 12/06 A2995 RMK AO2 T01200064
KGDJ 250115Z AUTO 00000KT 10SM CLR 13/07 A2995 RMK AO2 T01330074
KGDJ 250055Z AUTO 00000KT 10SM CLR 14/07 A2993 RMK AO2 T01420073
KGDJ 250035Z AUTO 00000KT 10SM CLR 15/08 A2993 RMK AO2 T01460075
KGDJ 250015Z AUTO 00000KT 10SM CLR 15/08 A2992 RMK AO2 T01540077
KGDJ 242355Z AUTO 36003KT 10SM CLR 17/08 A2991 RMK AO2 T01660080 10185 20108
KGDJ 242335Z AUTO 34005KT 10SM CLR 17/08 A2991 RMK AO2 T01710075
KGDJ 242315Z AUTO 33005KT 10SM CLR 18/07 A2990 RMK AO2 T01770074
KGDJ 242255Z AUTO 32008KT 10SM CLR 18/07 A2990 RMK AO2 T01800068
KGDJ 242235Z AUTO 31008KT 10SM CLR 18/07 A2989 RMK AO2 T01800070
KGDJ 242215Z AUTO 31009KT 10SM CLR 18/06 A2989 RMK AO2 T01800062
KGDJ 242200Z AUTO 32010KT 10SM CLR 18/06 A2988 RMK AO2 T01820056
KGDJ 242140Z AUTO 31010G16KT 10SM CLR 18/06 A2988 RMK AO2 T01830060
KGDJ 242115Z AUTO 29009G15KT 10SM CLR 18/09 A2988 RMK AO2 T01760088
KGDJ 242055Z AUTO 29012G16KT 10SM CLR 17/10 A2989 RMK AO2 T01710099
KGDJ 242035Z AUTO 30012KT 10SM CLR 16/11 A2989 RMK AO2 T01590106
KGDJ 242010Z AUTO 29011KT 10SM SCT013 15/11 A2990 RMK AO2 T01500110
KGDJ 241955Z AUTO 30014G17KT 10SM BKN013 14/11 A2990 RMK AO2 T01440112
KGDJ 241935Z AUTO 29012KT 10SM OVC009 14/11 A2991 RMK AO2 T01350113
KGDJ 241915Z AUTO 28010KT 10SM OVC007 12/11 A2991 RMK AO2 T01210105
KGDJ 241855Z AUTO 30008KT 10SM OVC007 12/11 A2992 RMK AO2 T01170105
KGDJ 241835Z AUTO 31009KT 10SM OVC007 11/10 A2993 RMK AO2 T01110101
KGDJ 241815Z AUTO 29009KT 10SM OVC007 11/10 A2992 RMK AO2 T01080100
KGDJ 241755Z AUTO 29010KT 10SM OVC007 11/11 A2991 RMK AO2 60010 T01120105 10119 20083
KGDJ 241735Z AUTO 29010KT 10SM OVC007 11/10 A2991 RMK AO2 T01050098
KGDJ 241715Z AUTO 29011KT 10SM OVC009 11/10 A2991 RMK AO2 T01070100
KGDJ 241655Z AUTO 29006KT 10SM OVC009 10/09 A2990 RMK AO2 LTG DSNT NE P0002 T00990092
KGDJ 241635Z AUTO 30008KT 10SM OVC007 09/08 A2990 RMK AO2 LTG DSNT NE P0002 T00900083
KGDJ 241615Z AUTO 29009KT 7SM OVC005 09/08 A2989 RMK AO2 P0002 T00860080
KGDJ 241555Z AUTO 29012KT 2 1/2SM -RA BKN003 OVC007 09/09 A2989 RMK AO2 P0003 T00930085
KGDJ 241535Z AUTO 29008KT 1 1/2SM DZ OVC003 12/11 A2987 RMK AO2 P0001 T01160109
KGDJ 241520Z AUTO 00000KT 1 1/4SM -DZ OVC003 12/11 A2986 RMK AO2 LTG DSNT N P0001 T01170110
KGDJ 241455Z AUTO 00000KT 3/4SM BR OVC003 12/11 A2985 RMK AO2 LTG DSNT N AND NW 60005 T01180111
KGDJ 241435Z AUTO 18003KT 3/4SM BR OVC003 12/11 A2985 RMK AO2 LTG DSNT E AND NW T01160110
KGDJ 241415Z AUTO 23003KT 1/2SM FG OVC003 12/11 A2985 RMK AO2 LTG DSNT NW THRU NE T01150108
KGDJ 241355Z AUTO 00000KT 1/2SM FG OVC003 11/10 A2984 RMK AO2 LTG DSNT NW T01070100
KGDJ 241335Z AUTO 31003KT 2 1/2SM BR OVC003 11/11 A2984 RMK AO2 LTG DSNT N THRU E T01110105
KGDJ 241315Z AUTO 14005KT 7SM -RA OVC003 11/11 A2984 RMK AO2 LTG DSNT NW THRU NE T01110105
KGDJ 241255Z AUTO 12014G17KT 3SM -TSRA OVC003 10/09 A2982 RMK AO2 LTG DSNT ALQS P0005 T00980092
KGDJ 241235Z AUTO 00000KT 5SM -VCTSRA OVC003 09/08 A2983 RMK AO2 LTG DSNT N THRU S P0003 T00900083
KGDJ 241215Z AUTO 11006KT 5SM VCTSRA OVC003 09/08 A2985 RMK AO2 LTG DSNT NE THRU S P0002 T00870080
KGDJ 241155Z AUTO 11009KT 2SM -TSSN OVC003 08/08 A2985 RMK AO2 LTG DSNT ALQS P0009 60012 70018 T00840076 10084 20061
KGDJ 241135Z AUTO 14006G17KT 4SM -RA OVC003 08/07 A2988 RMK AO2 LTG DSNT E AND SW T00790071
KGDJ 241120Z AUTO 11011KT 3SM -DZ OVC003 07/07 A2984 RMK AO2 LTG DSNT E AND SE T00730066
KGDJ 241055Z AUTO 11006KT 2 1/2SM RA OVC003 07/06 A2990 RMK AO2 LTG DSNT NE AND S P0003 T00700063
KGDJ 241035Z AUTO 00000KT 2 1/2SM -RA OVC003 07/06 A2993 RMK AO2 P0001 T00690061
KGDJ 241015Z AUTO 00000KT 1 3/4SM DZ OVC003 07/06 A2991 RMK AO2 T00670060
KGDJ 240955Z AUTO 00000KT 2SM -DZ OVC003 07/06 A2992 RMK AO2 T00650058
KGDJ 240935Z AUTO 00000KT 1SM BR OVC003 07/06 A2994 RMK AO2 T00650057
KGDJ 240915Z AUTO 00000KT 3/4SM BR OVC003 06/06 A2996 RMK AO2 T00630055
KGDJ 240855Z AUTO 00000KT 3/4SM BR OVC003 06/06 A2998 RMK AO2 T00620055
KGDJ 240835Z AUTO 00000KT 1SM BR OVC003 06/06 A2998 RMK AO2 T00630055
KGDJ 240815Z AUTO 00000KT 1SM BR OVC003 06/06 A2999 RMK AO2 T00630055